createdAt,value
2022-11-03T00:01:50.096Z,10.20
2022-11-03T00:04:19.851Z,10.30
2022-11-03T00:06:49.893Z,10.20
2022-11-03T00:09:20.125Z,10.20
2022-11-03T00:11:50.679Z,10.20
2022-11-03T00:14:20.921Z,10.20
2022-11-03T00:16:49.290Z,10.20
2022-11-03T00:19:17.746Z,10.20
2022-11-03T00:21:49.902Z,10.20
2022-11-03T00:24:17.925Z,10.20
2022-11-03T00:26:45.892Z,10.20
2022-11-03T00:29:16.069Z,10.20
2022-11-03T00:31:46.359Z,10.20
2022-11-03T00:34:14.370Z,10.20
2022-11-03T00:36:43.864Z,10.20
2022-11-03T00:39:12.882Z,10.30
2022-11-03T00:41:41.707Z,10.30
2022-11-03T00:44:13.301Z,10.20
2022-11-03T00:46:41.346Z,10.20
2022-11-03T00:49:10.700Z,10.20
2022-11-03T00:51:38.680Z,10.10
2022-11-03T00:54:08.307Z,10.20
2022-11-03T00:56:38.065Z,10.10
2022-11-03T00:59:07.487Z,10.10
2022-11-03T01:01:43.901Z,10.10
2022-11-03T01:04:38.108Z,10.20
2022-11-03T01:07:07.630Z,10.10
2022-11-03T01:09:37.526Z,10.10
2022-11-03T01:12:08.508Z,10.00
2022-11-03T01:14:38.750Z,10.00
2022-11-03T01:17:07.699Z,9.90
2022-11-03T01:19:37.232Z,9.90
2022-11-03T01:22:09.483Z,9.90
2022-11-03T01:24:39.320Z,9.90
2022-11-03T01:27:07.344Z,9.80
2022-11-03T01:29:35.326Z,9.90
2022-11-03T01:32:10.045Z,9.80
2022-11-03T01:34:39.666Z,9.80
2022-11-03T01:37:08.075Z,9.80
2022-11-03T01:39:36.125Z,9.80
2022-11-03T01:42:04.496Z,9.80
2022-11-03T01:44:37.458Z,9.80
2022-11-03T01:47:24.230Z,9.70
2022-11-03T01:49:59.813Z,9.80
2022-11-03T01:52:33.966Z,9.90
2022-11-03T01:55:05.804Z,9.90
2022-11-03T01:57:38.601Z,9.90
2022-11-03T02:00:08.276Z,9.90
2022-11-03T02:02:42.885Z,9.90
2022-11-03T02:05:13.827Z,9.90
2022-11-03T02:07:48.163Z,10.00
2022-11-03T02:10:16.252Z,10.00
2022-11-03T02:12:45.187Z,10.10
2022-11-03T02:15:15.859Z,10.10
2022-11-03T02:17:45.552Z,10.10
2022-11-03T02:20:17.588Z,10.10
2022-11-03T02:23:21.921Z,10.10
2022-11-03T02:25:53.238Z,10.10
2022-11-03T02:28:23.569Z,10.10
2022-11-03T02:30:58.645Z,10.20
2022-11-03T02:33:36.740Z,10.10
2022-11-03T02:36:11.111Z,10.20
2022-11-03T02:38:45.641Z,10.20
2022-11-03T02:41:17.249Z,10.20
2022-11-03T02:43:46.957Z,10.20
2022-11-03T02:46:17.299Z,10.10
2022-11-03T02:48:45.699Z,10.20
2022-11-03T02:51:13.672Z,10.20
2022-11-03T02:54:01.906Z,10.10
2022-11-03T02:56:34.899Z,10.20
2022-11-03T02:59:04.202Z,10.20
2022-11-03T03:01:37.225Z,10.30
2022-11-03T03:04:08.855Z,10.20
2022-11-03T03:06:40.436Z,10.30
2022-11-03T03:09:12.887Z,10.20
2022-11-03T03:11:44.708Z,10.20
2022-11-03T03:14:15.539Z,10.20
2022-11-03T03:16:49.980Z,10.40
2022-11-03T03:19:29.590Z,10.40
2022-11-03T03:22:01.286Z,10.40
2022-11-03T03:24:37.138Z,10.40
2022-11-03T03:27:12.196Z,10.50
2022-11-03T03:29:46.243Z,10.60
2022-11-03T03:32:18.553Z,10.50
2022-11-03T03:34:49.721Z,10.60
2022-11-03T03:37:18.660Z,10.60
2022-11-03T03:39:49.772Z,10.60
2022-11-03T03:42:22.643Z,10.60
2022-11-03T03:44:51.828Z,10.60
2022-11-03T03:47:25.915Z,10.60
2022-11-03T03:49:53.952Z,10.60
2022-11-03T03:52:22.325Z,10.70
2022-11-03T03:54:50.363Z,10.70
2022-11-03T03:57:23.195Z,10.80
2022-11-03T03:59:51.364Z,10.80
2022-11-03T04:02:19.722Z,10.80
2022-11-03T04:04:47.852Z,10.80
2022-11-03T04:07:33.425Z,10.80
2022-11-03T04:10:01.426Z,10.70
2022-11-03T04:12:44.644Z,10.70
2022-11-03T04:15:32.275Z,10.80
2022-11-03T04:18:17.651Z,10.80
2022-11-03T04:21:03.207Z,10.80
2022-11-03T04:23:31.259Z,10.80
2022-11-03T04:26:00.195Z,10.80
2022-11-03T04:28:29.660Z,10.80
2022-11-03T04:30:59.332Z,10.80
2022-11-03T04:33:27.721Z,10.80
2022-11-03T04:35:58.948Z,10.80
2022-11-03T04:38:28.477Z,10.90
2022-11-03T04:40:57.951Z,10.90
2022-11-03T04:43:34.024Z,10.90
2022-11-03T04:46:03.039Z,10.90
2022-11-03T04:48:31.843Z,10.90
2022-11-03T04:51:01.873Z,10.90
2022-11-03T04:53:33.932Z,11.00
2022-11-03T04:56:07.159Z,10.90
2022-11-03T04:58:37.685Z,11.00
2022-11-03T05:01:11.275Z,11.10
2022-11-03T05:03:41.134Z,11.10
2022-11-03T05:06:15.220Z,11.10
2022-11-03T05:08:45.068Z,11.10
2022-11-03T05:11:22.556Z,11.10
2022-11-03T05:13:53.379Z,11.10
2022-11-03T05:16:22.076Z,11.10
2022-11-03T05:18:51.362Z,11.10
2022-11-03T05:21:22.111Z,11.10
2022-11-03T05:23:54.075Z,11.20
2022-11-03T05:26:26.589Z,11.20
2022-11-03T05:29:00.485Z,11.20
2022-11-03T05:31:30.600Z,11.20
2022-11-03T05:34:00.066Z,11.20
2022-11-03T05:36:30.358Z,11.20
2022-11-03T05:39:02.202Z,11.20
2022-11-03T05:41:31.863Z,11.10
2022-11-03T05:44:06.948Z,11.10
2022-11-03T05:46:36.597Z,11.00
2022-11-03T05:49:08.082Z,11.10
2022-11-03T05:51:40.791Z,11.10
2022-11-03T05:54:20.500Z,11.00
2022-11-03T05:56:49.164Z,11.00
2022-11-03T05:59:24.314Z,11.00
2022-11-03T06:01:54.277Z,11.00
2022-11-03T06:04:27.748Z,11.00
2022-11-03T06:07:01.097Z,11.00
2022-11-03T06:09:30.430Z,10.90
2022-11-03T06:12:01.449Z,10.80
2022-11-03T06:14:32.580Z,10.90
2022-11-03T06:17:05.796Z,10.80
2022-11-03T06:19:38.036Z,10.80
2022-11-03T06:22:15.251Z,10.90
2022-11-03T06:24:43.666Z,10.80
2022-11-03T06:27:14.855Z,10.80
2022-11-03T06:29:49.789Z,10.80
2022-11-03T06:32:18.105Z,10.80
2022-11-03T06:34:48.396Z,10.80
2022-11-03T06:37:25.626Z,10.90
2022-11-03T06:40:00.976Z,10.80
2022-11-03T06:42:32.965Z,10.80
2022-11-03T06:45:10.297Z,10.80
2022-11-03T06:47:42.052Z,10.80
2022-11-03T06:50:23.212Z,10.70
2022-11-03T06:52:51.637Z,10.70
2022-11-03T06:55:25.476Z,10.80
2022-11-03T06:57:58.228Z,10.80
2022-11-03T07:00:39.692Z,10.80
2022-11-03T07:03:12.233Z,10.80
2022-11-03T07:05:40.850Z,10.90
2022-11-03T07:08:19.790Z,10.90
2022-11-03T07:10:48.812Z,11.00
2022-11-03T07:13:20.725Z,11.00
2022-11-03T07:15:50.185Z,11.10
2022-11-03T07:18:23.483Z,11.10
2022-11-03T07:20:52.487Z,11.20
2022-11-03T07:23:24.989Z,11.50
2022-11-03T07:25:55.703Z,12.00
2022-11-03T07:28:29.860Z,12.30
2022-11-03T07:31:00.751Z,12.60
2022-11-03T07:33:31.989Z,12.70
2022-11-03T07:36:17.325Z,13.00
2022-11-03T07:38:48.142Z,12.90
2022-11-03T07:41:20.478Z,12.10
2022-11-03T07:43:54.295Z,11.90
2022-11-03T07:46:24.460Z,11.80
2022-11-03T07:48:56.519Z,11.80
2022-11-03T07:51:27.100Z,11.70
2022-11-03T07:53:57.949Z,11.70
2022-11-03T07:56:27.878Z,11.70
2022-11-03T07:59:01.157Z,11.70
2022-11-03T08:01:32.964Z,11.80
2022-11-03T08:04:05.268Z,11.80
2022-11-03T08:06:33.771Z,11.80
2022-11-03T08:09:01.829Z,11.80
2022-11-03T08:11:30.141Z,11.90
2022-11-03T08:13:58.629Z,11.90
2022-11-03T08:16:27.092Z,12.00
2022-11-03T08:18:56.469Z,12.10
2022-11-03T08:21:26.318Z,12.20
2022-11-03T08:23:54.301Z,12.30
2022-11-03T08:26:22.522Z,12.40
2022-11-03T08:28:50.813Z,12.50
2022-11-03T08:31:18.955Z,12.50
2022-11-03T08:33:47.080Z,12.50
2022-11-03T08:36:17.127Z,12.60
2022-11-03T08:38:45.185Z,12.60
2022-11-03T08:41:13.175Z,12.70
2022-11-03T08:43:41.184Z,12.70
2022-11-03T08:46:17.309Z,12.70
2022-11-03T08:48:47.076Z,12.70
2022-11-03T08:51:17.269Z,12.80
2022-11-03T08:53:46.253Z,12.80
2022-11-03T08:56:16.193Z,12.80
2022-11-03T08:58:47.476Z,12.90
2022-11-03T09:01:15.798Z,12.90
2022-11-03T09:03:43.928Z,13.00
2022-11-03T09:06:12.167Z,13.00
2022-11-03T09:11:29.532Z,13.00
2022-11-03T09:13:57.904Z,13.10
2022-11-03T09:16:26.565Z,13.20
2022-11-03T09:18:54.607Z,13.20
2022-11-03T09:21:22.662Z,13.30
2022-11-03T09:23:52.059Z,13.30
2022-11-03T09:26:20.216Z,13.30
2022-11-03T09:28:49.314Z,13.40
2022-11-03T09:31:17.346Z,13.40
2022-11-03T09:34:15.388Z,13.50
2022-11-03T09:36:43.506Z,13.40
2022-11-03T09:39:12.861Z,13.50
2022-11-03T09:41:57.199Z,13.50
2022-11-03T09:44:26.945Z,13.40
2022-11-03T09:46:58.247Z,13.50
2022-11-03T09:49:27.405Z,13.40
2022-11-03T09:51:56.657Z,13.50
2022-11-03T09:54:27.880Z,13.50
2022-11-03T09:56:58.801Z,13.60
2022-11-03T09:59:26.819Z,13.70
2022-11-03T10:01:55.528Z,13.80
2022-11-03T10:04:28.016Z,13.80
2022-11-03T10:06:56.907Z,13.90
2022-11-03T10:09:28.454Z,13.90
2022-11-03T10:11:56.954Z,14.00
2022-11-03T10:14:25.331Z,14.00
2022-11-03T10:16:57.003Z,14.00
2022-11-03T10:19:25.693Z,14.10
2022-11-03T10:21:53.801Z,14.10
2022-11-03T10:24:22.069Z,14.10
2022-11-03T10:26:54.555Z,14.20
2022-11-03T10:29:23.725Z,14.20
2022-11-03T10:31:53.897Z,14.20
2022-11-03T10:34:27.776Z,14.30
2022-11-03T10:37:17.129Z,14.40
2022-11-03T10:39:46.006Z,14.50
2022-11-03T10:42:21.439Z,14.60
2022-11-03T10:44:51.784Z,14.60
2022-11-03T10:47:33.741Z,14.70
2022-11-03T10:50:20.032Z,14.70
2022-11-03T10:52:48.130Z,14.80
2022-11-03T10:55:20.612Z,14.80
2022-11-03T10:57:55.765Z,14.80
2022-11-03T11:00:24.783Z,14.80
2022-11-03T11:03:01.658Z,14.80
2022-11-03T11:05:29.924Z,14.80
2022-11-03T11:07:59.849Z,14.80
2022-11-03T11:10:29.887Z,14.80
2022-11-03T11:13:26.114Z,14.80
2022-11-03T11:15:55.276Z,15.00
2022-11-03T11:19:02.232Z,15.00
2022-11-03T11:22:01.869Z,15.00
2022-11-03T11:24:58.567Z,14.90
2022-11-03T11:28:08.927Z,14.90
2022-11-03T11:31:25.853Z,15.00
2022-11-03T11:34:39.650Z,15.00
2022-11-03T11:37:36.413Z,14.80
2022-11-03T11:40:12.408Z,14.70
2022-11-03T11:43:22.073Z,14.70
2022-11-03T11:46:27.184Z,14.60
2022-11-03T11:49:18.052Z,14.60
2022-11-03T11:51:46.348Z,14.50
2022-11-03T11:54:18.930Z,14.50
2022-11-03T11:56:49.689Z,14.40
2022-11-03T11:59:25.250Z,14.30
2022-11-03T12:01:57.084Z,14.20
2022-11-03T12:04:29.158Z,14.20
2022-11-03T12:06:57.586Z,14.10
2022-11-03T12:09:28.362Z,14.00
2022-11-03T12:12:00.557Z,14.00
2022-11-03T12:14:35.707Z,14.00
2022-11-03T12:17:35.036Z,14.00
2022-11-03T12:20:36.850Z,14.00
2022-11-03T12:23:04.868Z,14.10
2022-11-03T12:25:40.006Z,14.30
2022-11-03T12:28:08.384Z,14.30
2022-11-03T12:30:40.020Z,14.30
2022-11-03T12:33:08.904Z,14.30
2022-11-03T12:35:38.639Z,14.20
2022-11-03T12:38:06.685Z,14.30
2022-11-03T12:40:34.684Z,14.20
2022-11-03T12:43:02.685Z,14.20
2022-11-03T12:45:30.699Z,14.10
2022-11-03T12:47:58.877Z,14.10
2022-11-03T12:50:27.337Z,14.00
2022-11-03T12:52:56.710Z,14.00
2022-11-03T12:55:25.053Z,13.90
2022-11-03T12:57:53.119Z,14.00
2022-11-03T13:00:21.281Z,14.00
2022-11-03T13:02:49.849Z,13.90
2022-11-03T13:05:18.023Z,13.90
2022-11-03T13:07:46.047Z,13.90
2022-11-03T13:10:16.066Z,13.90
2022-11-03T13:12:45.228Z,13.90
2022-11-03T13:15:15.705Z,14.00
2022-11-03T13:18:12.977Z,14.00
2022-11-03T13:20:32.714Z,14.00
2022-11-03T13:23:00.744Z,14.00
2022-11-03T13:25:30.343Z,13.90
2022-11-03T13:27:58.786Z,13.90
2022-11-03T13:30:28.032Z,13.90
2022-11-03T13:32:56.015Z,13.90
2022-11-03T13:35:24.240Z,13.80
2022-11-03T13:37:52.411Z,13.90
2022-11-03T13:40:55.480Z,13.80
2022-11-03T13:43:10.215Z,13.80
2022-11-03T13:45:38.528Z,13.70
2022-11-03T13:50:56.019Z,13.60
2022-11-03T13:56:19.287Z,13.60
2022-11-03T14:01:40.807Z,13.60
2022-11-03T14:06:57.720Z,13.70
2022-11-03T14:09:26.165Z,13.70
2022-11-03T14:12:11.885Z,13.70
2022-11-03T14:14:41.207Z,13.70
2022-11-03T14:17:10.529Z,13.60
2022-11-03T14:19:44.809Z,13.60
2022-11-03T14:22:15.483Z,13.60
2022-11-03T14:24:44.044Z,13.50
2022-11-03T14:27:12.768Z,13.50
2022-11-03T14:29:42.330Z,13.40
2022-11-03T14:32:10.369Z,13.50
2022-11-03T14:34:39.408Z,13.40
2022-11-03T14:37:08.834Z,13.30
2022-11-03T14:39:37.565Z,13.20
2022-11-03T14:42:05.211Z,13.00
2022-11-03T14:44:34.319Z,12.90
2022-11-03T14:47:05.198Z,12.70
2022-11-03T14:49:34.336Z,12.50
2022-11-03T14:52:03.303Z,12.40
2022-11-03T14:54:32.125Z,12.30
2022-11-03T14:57:00.351Z,12.30
2022-11-03T14:59:28.392Z,12.20
2022-11-03T15:01:57.378Z,12.10
2022-11-03T15:04:27.439Z,11.90
2022-11-03T15:06:55.633Z,12.00
2022-11-03T15:09:23.653Z,11.90
2022-11-03T15:11:51.681Z,11.80
2022-11-03T15:14:19.722Z,11.80
2022-11-03T15:16:48.082Z,11.80
2022-11-03T15:19:16.221Z,11.80
2022-11-03T15:21:45.699Z,11.80
2022-11-03T15:27:01.707Z,11.70
2022-11-03T15:29:29.687Z,11.70
2022-11-03T15:31:57.724Z,11.70
2022-11-03T15:34:25.716Z,11.70
2022-11-03T15:36:55.102Z,11.70
2022-11-03T15:39:23.070Z,11.60
2022-11-03T15:41:51.076Z,11.60
2022-11-03T15:44:19.104Z,11.60
2022-11-03T15:46:47.093Z,11.60
2022-11-03T15:49:15.089Z,11.60
2022-11-03T15:51:43.168Z,11.50
2022-11-03T15:54:12.524Z,11.50
2022-11-03T15:56:40.586Z,11.50
2022-11-03T15:59:08.609Z,11.50
2022-11-03T16:01:36.700Z,11.50
2022-11-03T16:04:04.791Z,11.50
2022-11-03T16:07:01.744Z,11.40
2022-11-03T16:09:22.147Z,11.50
2022-11-03T16:11:50.141Z,11.40
2022-11-03T16:14:18.224Z,11.40
2022-11-03T16:16:46.347Z,11.40
2022-11-03T16:19:14.366Z,11.40
2022-11-03T16:21:42.473Z,11.30
2022-11-03T16:24:11.307Z,11.30
2022-11-03T16:26:40.722Z,11.40
2022-11-03T16:29:09.117Z,11.30
2022-11-03T16:31:37.140Z,11.30
2022-11-03T16:34:05.195Z,11.30
2022-11-03T16:36:33.212Z,11.30
2022-11-03T16:39:01.248Z,11.30
2022-11-03T16:41:29.302Z,11.40
2022-11-03T16:43:58.979Z,11.30
2022-11-03T16:46:27.036Z,11.40
2022-11-03T16:48:55.449Z,11.40
2022-11-03T16:51:23.526Z,11.40
2022-11-03T16:53:52.742Z,11.40
2022-11-03T16:56:21.557Z,11.30
2022-11-03T16:58:49.571Z,11.40
2022-11-03T17:01:19.104Z,11.40
2022-11-03T17:03:47.222Z,11.40
2022-11-03T17:06:15.238Z,11.50
2022-11-03T17:08:58.507Z,11.50
2022-11-03T17:11:39.299Z,11.50
2022-11-03T17:14:08.759Z,11.50
2022-11-03T17:16:38.125Z,11.60
2022-11-03T17:19:06.201Z,11.60
2022-11-03T17:21:34.247Z,11.60
2022-11-03T17:24:02.297Z,11.60
2022-11-03T17:26:38.932Z,11.70
2022-11-03T17:29:14.671Z,11.60
2022-11-03T17:31:44.117Z,11.60
2022-11-03T17:34:13.096Z,11.70
2022-11-03T17:36:41.528Z,11.70
2022-11-03T17:39:11.692Z,11.60
2022-11-03T17:41:39.913Z,11.60
2022-11-03T17:44:12.129Z,11.60
2022-11-03T17:46:40.274Z,11.70
2022-11-03T17:49:09.653Z,11.70
2022-11-03T17:51:41.854Z,11.70
2022-11-03T17:54:16.241Z,11.70
2022-11-03T17:56:44.328Z,11.70
2022-11-03T17:59:16.281Z,11.80
2022-11-03T18:01:45.200Z,11.70
2022-11-03T18:04:16.195Z,11.80
2022-11-03T18:06:45.380Z,11.80
2022-11-03T18:09:13.459Z,11.80
2022-11-03T18:12:01.446Z,11.80
2022-11-03T18:14:30.518Z,11.80
2022-11-03T18:16:58.985Z,11.90
2022-11-03T18:19:28.484Z,11.90
2022-11-03T18:21:57.165Z,11.90
2022-11-03T18:24:26.750Z,11.90
2022-11-03T18:26:54.777Z,11.90
2022-11-03T18:29:22.777Z,12.00
2022-11-03T18:31:51.081Z,12.10
2022-11-03T18:34:23.115Z,12.20
2022-11-03T18:36:53.224Z,12.20
2022-11-03T18:39:24.842Z,12.20
2022-11-03T18:41:52.899Z,12.30
2022-11-03T18:44:22.134Z,12.40
2022-11-03T18:46:51.354Z,12.50
2022-11-03T18:49:20.350Z,12.40
2022-11-03T18:51:50.455Z,12.50
2022-11-03T18:54:22.051Z,12.50
2022-11-03T18:56:50.961Z,12.40
2022-11-03T18:59:22.688Z,12.50
2022-11-03T19:01:50.935Z,12.40
2022-11-03T19:04:19.344Z,12.40
2022-11-03T19:06:48.813Z,12.30
2022-11-03T19:09:20.726Z,12.40
2022-11-03T19:11:49.821Z,12.30
2022-11-03T19:14:23.194Z,12.20
2022-11-03T19:17:17.160Z,12.20
2022-11-03T19:19:41.430Z,12.20
2022-11-03T19:30:51.897Z,12.10
2022-11-03T19:33:26.609Z,12.10
2022-11-03T19:35:54.779Z,12.10
2022-11-03T19:38:23.022Z,12.10
2022-11-03T19:41:10.032Z,12.10
2022-11-03T19:43:38.121Z,12.10
2022-11-03T19:46:11.087Z,12.10
2022-11-03T19:48:39.168Z,12.10
2022-11-03T19:51:09.115Z,12.10
2022-11-03T19:53:37.937Z,12.00
2022-11-03T19:56:11.614Z,12.00
2022-11-03T19:58:39.817Z,11.90
2022-11-03T20:01:09.687Z,11.90
2022-11-03T20:03:38.178Z,11.90
2022-11-03T20:06:08.214Z,11.80
2022-11-03T20:08:39.782Z,11.80
2022-11-03T20:11:08.254Z,11.80
2022-11-03T20:13:42.389Z,11.90
2022-11-03T20:16:14.888Z,11.90
2022-11-03T20:18:43.789Z,11.90
2022-11-03T20:21:15.447Z,11.80
2022-11-03T20:23:43.837Z,11.80
2022-11-03T20:26:15.523Z,11.80
2022-11-03T20:28:43.907Z,11.80
2022-11-03T20:31:13.981Z,11.80
2022-11-03T20:33:42.047Z,11.80
2022-11-03T20:36:16.369Z,11.80
2022-11-03T20:38:46.718Z,11.80
2022-11-03T20:41:16.668Z,11.80
2022-11-03T20:43:46.529Z,11.80
2022-11-03T20:46:23.980Z,11.80
2022-11-03T20:48:52.315Z,11.80
2022-11-03T20:51:22.281Z,11.90
2022-11-03T20:53:50.495Z,11.90
2022-11-03T20:56:20.592Z,11.90
2022-11-03T20:58:48.706Z,11.90
2022-11-03T21:01:20.882Z,11.90
2022-11-03T21:04:04.635Z,11.90
2022-11-03T21:06:33.889Z,12.00
2022-11-03T21:09:02.141Z,12.00
2022-11-03T21:11:35.180Z,12.00
2022-11-03T21:14:08.805Z,12.00
2022-11-03T21:16:57.953Z,12.00
2022-11-03T21:19:45.962Z,12.10
2022-11-03T21:22:51.192Z,12.20
2022-11-03T21:25:05.240Z,12.10
2022-11-03T21:27:34.673Z,12.10
2022-11-03T21:30:05.138Z,12.20
2022-11-03T21:32:34.601Z,12.20
2022-11-03T21:35:02.681Z,12.30
2022-11-03T21:37:30.735Z,12.20
2022-11-03T21:39:58.756Z,12.30
2022-11-03T21:42:44.100Z,12.20
2022-11-03T21:45:12.632Z,12.10
2022-11-03T21:48:02.906Z,12.10
2022-11-03T21:50:29.960Z,12.10
2022-11-03T21:52:58.826Z,12.10
2022-11-03T21:55:26.865Z,12.10
2022-11-03T21:57:54.909Z,12.00
2022-11-03T22:00:23.050Z,12.00
2022-11-03T22:02:52.424Z,12.00
2022-11-03T22:05:20.595Z,12.00
2022-11-03T22:07:48.546Z,12.00
2022-11-03T22:10:17.814Z,12.10
2022-11-03T22:12:45.949Z,11.90
2022-11-03T22:15:31.369Z,11.70
2022-11-03T22:18:02.895Z,11.60
2022-11-03T22:20:48.588Z,11.60
2022-11-03T22:23:34.578Z,11.60
2022-11-03T22:26:20.176Z,11.60
2022-11-03T22:29:08.677Z,11.60
2022-11-03T22:31:41.762Z,11.50
2022-11-03T22:34:28.770Z,11.50
2022-11-03T22:36:56.811Z,11.40
2022-11-03T22:39:42.156Z,11.40
2022-11-03T22:42:29.352Z,11.40
2022-11-03T22:45:14.984Z,11.30
2022-11-03T22:47:42.969Z,11.30
2022-11-03T22:50:12.479Z,11.20
2022-11-03T22:52:40.521Z,11.20
2022-11-03T22:55:07.896Z,11.20
2022-11-03T22:57:36.072Z,11.20
2022-11-03T23:00:05.998Z,11.20
2022-11-03T23:02:34.036Z,11.10
2022-11-03T23:05:03.167Z,11.10
2022-11-03T23:07:37.086Z,11.10
2022-11-03T23:10:09.323Z,11.00
2022-11-03T23:12:37.381Z,10.90
2022-11-03T23:15:23.823Z,10.90
2022-11-03T23:18:09.437Z,10.80
2022-11-03T23:20:56.567Z,10.70
2022-11-03T23:23:42.721Z,10.70
2022-11-03T23:26:10.783Z,10.70
2022-11-03T23:28:38.810Z,10.60
2022-11-03T23:31:07.213Z,10.70
2022-11-03T23:33:35.496Z,10.70
2022-11-03T23:36:08.259Z,10.60
2022-11-03T23:38:38.437Z,10.60
2022-11-03T23:41:09.036Z,10.60
2022-11-03T23:43:37.234Z,10.60
2022-11-03T23:46:23.018Z,10.70
2022-11-03T23:48:51.895Z,10.70
2022-11-03T23:51:21.615Z,10.70
2022-11-03T23:53:51.832Z,10.60
2022-11-03T23:56:40.200Z,10.70
2022-11-03T23:59:08.978Z,10.70
